^^

Nearby METAR Reports

 

KBJC - Broomfield, Colorado
Distance from station: ESE 4mi, 6km
Updated: 10/15/2019 11:30pm
Clear
Clear
 Wind from calm
Wind: Calm
Temperature: 46°F , 8°C
Dew Point: 23°F , -5°C
Humidity: 40%
Barometer: 1025.4 hPa
Clouds: Clear
Visibility: 10 miles , 16 km
2019/10/16 05:30 KBJC 160530Z AUTO 00000KT 10SM CLR 08/M05 A3028 RMK AO2
KBDU - Boulder, Colorado
Distance from station: NNW 8mi, 13km
Updated: 10/15/2019 11:30pm
Clear
Clear
 Wind from calm
Wind: Calm
Temperature: 41°F , 5°C
Dew Point: 30°F , -1°C
Humidity: 66%
Barometer: 1025.1 hPa
Clouds: Clear
Visibility: 10 miles , 16 km
2019/10/16 05:30 KBDU 160530Z AUTO 00000KT 10SM CLR 05/M01 A3027 RMK AO2
 
KEIK - Erie, Colorado
Distance from station: NE 8mi, 14km
Updated: 10/15/2019 11:30pm
Clear
Clear
 Wind from calm
Wind: Calm
Temperature: 36°F , 2°C
Dew Point: 27°F , -3°C
Humidity: 70%
Barometer: 1027.1 hPa
Clouds: Clear
Visibility: 10 miles , 16 km
2019/10/16 05:30 KEIK 160530Z AUTO 00000KT 10SM CLR 02/M03 A3033 RMK AO2 T00191026
KLMO - Longmont, Colorado
Distance from station: N 17mi, 27km
Updated: 10/15/2019 11:35pm
Clear
Clear
 Wind from WNW
Wind: WNW 3 mph , 6 km/h
Temperature: 39°F , 4°C
Dew Point: 30°F , -1°C
Humidity: 70%
Barometer: 1025.7 hPa
Clouds: Clear
Visibility: 10 miles , 16 km
2019/10/16 05:35 KLMO 160535Z AUTO 29003KT 10SM CLR 04/M01 A3029 RMK AO2 T00431011
 
KDEN - Denver (DIA), Colorado
Distance from station: E 27mi, 44km
Updated: 10/15/2019 10:53pm
Few Clouds
Few Clouds
 Wind from SSE
Wind: SSE 10 mph , 17 km/h
Temperature: 36°F , 2°C
Wind Chill: 29°F , -2°C
Dew Point: 21°F , -6°C
Humidity: 56%
Barometer: 1025.4 hPa
Clouds: Few Clouds
Visibility: 10 miles , 16 km
Cloud details: Few Clouds 25000 ft
2019/10/16 04:53 KDEN 160453Z 15009KT 10SM FEW250 02/M06 A3028 RMK AO2 SLP241 T00221056
KFNL - Ft Collins, Colorado
Distance from station: N 37mi, 59km
Updated: 10/15/2019 10:56pm
Clear
Clear
 Wind from E
Wind: E 6 mph , 9 km/h
Temperature: 43°F , 6°C
Wind Chill: 39°F , 4°C
Dew Point: 28°F , -2°C
Humidity: 57%
Barometer: 1025.7 hPa
Clouds: Clear
Visibility: 10 miles , 16 km
2019/10/16 04:56 KFNL 160456Z AUTO 10005KT 10SM CLR 06/M02 A3029 RMK AO2 SLP244 T00611022
 
KGXY - Greeley, Colorado
Distance from station: NE 44mi, 71km
Updated: 10/15/2019 10:56pm
Clear
Clear
 Wind from ENE
Wind: ENE 3 mph , 6 km/h
Temperature: 39°F , 4°C
Dew Point: 25°F , -4°C
Humidity: 56%
Barometer: 1025.7 hPa
Clouds: Clear
Visibility: 10 miles , 16 km
2019/10/16 04:56 KGXY 160456Z AUTO 06003KT 10SM CLR 04/M04 A3029 RMK AO2 SLP267 T00391044
KSBS - Steamboat Springs, Colorado
Distance from station: N 99mi, 159km
Updated: 10/15/2019 11:15pm
Clear
Clear
 Wind from calm
Wind: Calm
Temperature: 37°F , 3°C
Dew Point: 18°F , -8°C
Humidity: 45%
Barometer: 1027.4 hPa
Clouds: Clear
Visibility: 10 miles , 16 km
2019/10/16 05:15 KSBS 160515Z AUTO 00000KT 10SM CLR 03/M08 A3034 RMK AO1 T00301085
 
KEGE - Eagle Co. Region, Colorado
Distance from station: SW 96mi, 154km
Updated: 10/15/2019 10:56pm
Clear
Clear
 Wind from calm
Wind: Calm
Temperature: 39°F , 4°C
Dew Point: 12°F , -11°C
Humidity: 33%
Barometer: 1028.8 hPa
Clouds: Clear
Visibility: 10 miles , 16 km
2019/10/16 04:56 KEGE 160456Z AUTO 00000KT 10SM CLR 04/M11 A3038 RMK AO2 SLP295 T00391106
KGJT - Grand Junction, Colorado
Distance from station: WSW 187mi, 302km
Updated: 10/15/2019 10:53pm
Clear
Clear
 Wind from E
Wind: E 6 mph , 9 km/h
Temperature: 46°F , 8°C
Wind Chill: 43°F , 6°C
Dew Point: 7°F , -14°C
Humidity: 20%
Barometer: 1024.7 hPa
Clouds: Clear
Visibility: 10 miles , 16 km
2019/10/16 04:53 KGJT 160453Z AUTO 10005KT 10SM CLR 08/M14 A3026 RMK AO2 SLP217 T00831144
 
KDRO - Durango, Colorado
Distance from station: SW 238mi, 383km
Updated: 10/15/2019 10:53pm
Clear
Clear
 Wind from calm
Wind: Calm
Temperature: 41°F , 5°C
Dew Point: 10°F , -12°C
Humidity: 28%
Barometer: 1026.4 hPa
Clouds: Clear
Visibility: 10 miles , 16 km
2019/10/16 04:53 KDRO 160453Z AUTO 00000KT 10SM CLR 05/M12 A3031 RMK AO2 SLP229 T00501122
KCYS - Cheyenne, Wyoming
Distance from station: N 86mi, 139km
Updated: 10/15/2019 10:53pm
Clear
Clear
 Wind from SW
Wind: SW 7 mph , 11 km/h
Temperature: 36°F , 2°C
Wind Chill: 30°F , -1°C
Dew Point: 25°F , -4°C
Humidity: 65%
Barometer: 1025.1 hPa
Clouds: Clear
Visibility: 10 miles , 16 km
2019/10/16 04:53 KCYS 160453Z AUTO 22006KT 10SM CLR 02/M04 A3027 RMK AO2 SLP241 T00171039
 
KCOS - Colorado Springs, Colorado
Distance from station: S 74mi, 120km
Updated: 10/15/2019 10:54pm
Clear
Clear
 Wind from S
Wind: S 6 mph , 9 km/h
Temperature: 46°F , 8°C
Wind Chill: 43°F , 6°C
Dew Point: 21°F , -6°C
Humidity: 37%
Barometer: 1027.8 hPa
Clouds: Clear
Visibility: 10 miles , 16 km
2019/10/16 04:54 KCOS 160454Z 17005KT 10SM CLR 08/M06 A3035 RMK AO2 SLP255 T00831061
KPUB - Pueblo, Colorado
Distance from station: S 119mi, 192km
Updated: 10/15/2019 10:53pm
Clear
Clear
 Wind from E
Wind: E 3 mph , 6 km/h
Temperature: 43°F , 6°C
Dew Point: 21°F , -6°C
Humidity: 42%
Barometer: 1026.4 hPa
Clouds: Clear
Visibility: 10 miles , 16 km
2019/10/16 04:53 KPUB 160453Z AUTO 09003KT 10SM CLR 06/M06 A3031 RMK AO2 SLP245 T00611061
 
KLAA - Lamar, Colorado
Distance from station: ESE 184mi, 297km
Updated: 10/15/2019 10:53pm
Clear
Clear
 Wind from SW
Wind: SW 5 mph , 7 km/h
Temperature: 34°F , 1°C
Wind Chill: 29°F , -2°C
Dew Point: 18°F , -8°C
Humidity: 51%
Barometer: 1025.4 hPa
Clouds: Clear
Visibility: 10 miles , 16 km
2019/10/16 04:53 KLAA 160453Z AUTO 22004KT 10SM CLR 01/M08 A3028 RMK AO2 SLP248 T00061083